Time;durP1;ratioP1;P1;durP2;ratioP2;P2;SDS_P1;SDS_P2;PMS_P1;PMS_P2;Temp;Humidity;BMP_temperature;BMP_pressure;BME280_temperature;BME280_humidity;BME280_pressure;Samples;Min_cycle;Max_cycle;Signal;HPM_P1;HPM_P2
2022/07/03 00:00:40;;;;;;;4.83;4.00;;;22.00;38.10;;;;;;5073600;28;20197;-46
2022/07/03 00:03:06;;;;;;;5.47;3.63;;;22.00;38.20;;;;;;5073876;28;20205;-47
2022/07/03 00:05:32;;;;;;;4.07;3.37;;;21.90;38.40;;;;;;5073503;28;20879;-46
2022/07/03 00:07:58;;;;;;;4.20;3.43;;;21.80;38.40;;;;;;5073533;28;20753;-46
2022/07/03 00:10:23;;;;;;;4.23;3.83;;;21.70;38.90;;;;;;5073382;28;20682;-47
2022/07/03 00:12:49;;;;;;;5.50;4.40;;;21.60;38.60;;;;;;5073414;28;20418;-46
2022/07/03 00:15:15;;;;;;;5.50;4.43;;;21.50;39.10;;;;;;5073380;28;20168;-46
2022/07/03 00:17:41;;;;;;;5.23;4.00;;;21.40;39.00;;;;;;5073421;28;20200;-46
2022/07/03 00:20:08;;;;;;;4.77;3.90;;;21.40;39.00;;;;;;5073020;28;20675;-46
2022/07/03 00:22:37;;;;;;;5.30;4.70;;;21.40;39.00;;;;;;5073169;28;20413;-47
2022/07/03 00:25:05;;;;;;;4.37;3.60;;;21.40;38.90;;;;;;5073401;28;20461;-47
2022/07/03 00:27:36;;;;;;;4.60;3.97;;;21.40;38.60;;;;;;5072811;28;20891;-46
2022/07/03 00:30:03;;;;;;;4.13;3.50;;;21.40;38.70;;;;;;5073048;28;20414;-46
2022/07/03 00:32:29;;;;;;;7.83;4.03;;;21.40;38.90;;;;;;5072968;28;20399;-45
2022/07/03 00:34:57;;;;;;;5.60;4.47;;;21.40;39.10;;;;;;5073001;28;20457;-46
2022/07/03 00:37:24;;;;;;;4.80;4.40;;;21.50;39.00;;;;;;5072692;28;20452;-45
2022/07/03 00:39:51;;;;;;;6.00;4.07;;;21.50;39.00;;;;;;5072830;28;20476;-46
2022/07/03 00:42:17;;;;;;;5.30;4.50;;;21.40;39.30;;;;;;5072933;28;20886;-47
2022/07/03 00:44:48;;;;;;;5.40;4.87;;;21.40;39.20;;;;;;5072822;28;20518;-47
2022/07/03 00:47:15;;;;;;;4.93;4.43;;;21.40;39.30;;;;;;5072508;28;20387;-46
2022/07/03 00:49:44;;;;;;;5.00;4.10;;;21.30;39.30;;;;;;5072563;28;20486;-46
2022/07/03 00:52:12;;;;;;;4.70;4.27;;;21.30;39.30;;;;;;5072548;28;20418;-45
2022/07/03 00:54:50;;;;;;;5.23;4.73;;;21.30;39.20;;;;;;5072504;28;20438;-46
2022/07/03 00:57:16;;;;;;;4.40;3.70;;;21.30;39.40;;;;;;5072239;28;20426;-46
2022/07/03 00:59:43;;;;;;;5.20;4.57;;;21.30;39.20;;;;;;5072743;28;20529;-46
2022/07/03 01:02:18;;;;;;;4.77;4.27;;;21.30;39.20;;;;;;5072511;28;20440;-46
2022/07/03 01:05:11;;;;;;;5.00;4.23;;;21.30;39.20;;;;;;5072624;28;20383;-45
2022/07/03 01:08:20;;;;;;;4.77;3.77;;;21.30;39.30;;;;;;5072115;28;20403;-46
2022/07/03 01:11:07;;;;;;;8.40;3.90;;;21.20;39.50;;;;;;5069560;28;20435;-46
2022/07/03 01:14:03;;;;;;;6.30;4.30;;;21.20;39.50;;;;;;5072389;28;20913;-46
2022/07/03 01:17:01;;;;;;;5.00;4.50;;;21.20;39.50;;;;;;5072075;28;20410;-47
2022/07/03 01:19:42;;;;;;;5.90;4.40;;;21.10;39.60;;;;;;5067889;28;20483;-46
2022/07/03 01:22:14;;;;;;;4.97;4.30;;;21.10;40.20;;;;;;5072281;28;20411;-46
2022/07/03 01:25:07;;;;;;;4.40;4.00;;;21.10;39.50;;;;;;5072048;28;20414;-47
2022/07/03 01:27:43;;;;;;;4.83;3.77;;;21.00;39.30;;;;;;5071834;28;20391;-45
2022/07/03 01:30:10;;;;;;;4.97;4.20;;;21.00;39.40;;;;;;5070819;28;20434;-45
2022/07/03 01:32:46;;;;;;;5.43;4.40;;;20.90;39.30;;;;;;5072136;28;20759;-46
2022/07/03 01:35:15;;;;;;;4.82;3.50;;;20.90;39.50;;;;;;5072172;28;20470;-46
2022/07/03 01:37:41;;;;;;;4.23;3.80;;;21.00;39.40;;;;;;5071807;28;20184;-45
2022/07/03 01:40:08;;;;;;;5.67;4.37;;;20.90;39.60;;;;;;5072089;28;20427;-44
2022/07/03 01:42:37;;;;;;;3.70;3.37;;;20.90;39.70;;;;;;5072104;28;20406;-46
2022/07/03 01:45:05;;;;;;;5.23;4.17;;;20.90;39.60;;;;;;5071997;28;20406;-46
2022/07/03 01:47:34;;;;;;;5.60;4.97;;;20.90;39.70;;;;;;5071632;28;20407;-47
2022/07/03 01:50:01;;;;;;;5.10;4.00;;;20.80;39.60;;;;;;5071827;28;20196;-46
2022/07/03 01:52:31;;;;;;;5.63;4.43;;;20.80;39.60;;;;;;5071897;28;20419;-45
2022/07/03 01:55:01;;;;;;;5.70;3.83;;;20.80;39.60;;;;;;5072185;28;20486;-46
2022/07/03 01:57:53;;;;;;;5.80;3.80;;;20.80;39.90;;;;;;5071614;28;20991;-45
2022/07/03 02:00:21;;;;;;;4.27;3.57;;;20.70;39.90;;;;;;5070680;28;20537;-46
2022/07/03 02:03:02;;;;;;;5.10;4.30;;;20.70;39.90;;;;;;5071794;28;20410;-45
2022/07/03 02:05:54;;;;;;;4.65;4.22;;;20.70;40.00;;;;;;5074186;28;20398;-45
2022/07/03 02:08:37;;;;;;;4.87;3.73;;;20.70;40.20;;;;;;5075708;28;20272;-46
2022/07/03 02:11:13;;;;;;;4.70;3.27;;;20.60;39.90;;;;;;5076068;28;20462;-46
2022/07/03 02:13:54;;;;;;;3.83;3.30;;;20.60;40.00;;;;;;5075850;28;20428;-46
2022/07/03 02:16:22;;;;;;;4.28;3.88;;;20.60;40.30;;;;;;5075441;28;20167;-45
2022/07/03 02:19:02;;;;;;;4.63;4.00;;;20.50;40.20;;;;;;5075412;28;20169;-46
2022/07/03 02:21:29;;;;;;;4.32;3.90;;;20.50;40.60;;;;;;5075544;28;20160;-47
2022/07/03 02:24:00;;;;;;;4.50;4.00;;;20.50;40.50;;;;;;5075643;28;20176;-46
2022/07/03 02:26:32;;;;;;;4.90;4.30;;;20.50;40.60;;;;;;5075163;28;20520;-46
2022/07/03 02:29:03;;;;;;;5.60;4.33;;;20.50;40.70;;;;;;5075244;28;20212;-46
2022/07/03 02:31:43;;;;;;;7.72;4.13;;;20.50;40.60;;;;;;5075655;28;20460;-46
2022/07/03 02:34:15;;;;;;;5.03;3.67;;;20.50;40.80;;;;;;5075373;28;20176;-46
2022/07/03 02:36:45;;;;;;;5.37;4.67;;;20.40;40.60;;;;;;5075018;28;20478;-46
2022/07/03 02:39:18;;;;;;;6.07;4.30;;;20.40;40.40;;;;;;5075467;28;20422;-46
2022/07/03 02:41:50;;;;;;;5.70;4.20;;;20.40;40.40;;;;;;5075287;28;20210;-45
2022/07/03 02:44:37;;;;;;;5.40;4.47;;;20.30;40.60;;;;;;5075115;28;20588;-46
2022/07/03 02:47:31;;;;;;;4.30;3.90;;;20.30;40.70;;;;;;5074883;28;20593;-45
2022/07/03 02:50:08;;;;;;;4.50;3.75;;;20.30;41.00;;;;;;5074890;28;20953;-46
2022/07/03 02:52:44;;;;;;;4.20;3.67;;;20.20;41.00;;;;;;5074975;28;20168;-46
2022/07/03 02:55:26;;;;;;;9.13;4.85;;;20.20;41.20;;;;;;5074916;28;20407;-46
2022/07/03 02:58:05;;;;;;;4.90;4.40;;;20.20;41.30;;;;;;5074869;28;20617;-46
2022/07/03 03:00:37;;;;;;;5.13;3.85;;;20.20;41.40;;;;;;5074819;28;20770;-46
2022/07/03 03:03:03;;;;;;;4.70;3.80;;;20.10;41.30;;;;;;5074862;28;20184;-47
2022/07/03 03:05:45;;;;;;;4.88;4.00;;;20.10;41.60;;;;;;5074690;28;20656;-46
2022/07/03 03:08:11;;;;;;;7.13;4.43;;;20.10;41.70;;;;;;5074980;28;20231;-46
2022/07/03 03:10:38;;;;;;;4.35;3.67;;;20.10;41.70;;;;;;5074521;28;20791;-46
2022/07/03 03:13:07;;;;;;;4.47;4.05;;;20.00;41.70;;;;;;5074614;28;20184;-46
2022/07/03 03:15:34;;;;;;;6.28;4.90;;;20.00;41.80;;;;;;5073855;28;20656;-45
2022/07/03 03:18:11;;;;;;;4.75;4.20;;;20.00;41.90;;;;;;5074067;28;20227;-46
2022/07/03 03:20:38;;;;;;;5.25;4.35;;;20.00;42.10;;;;;;5074378;28;20204;-46
2022/07/03 03:23:28;;;;;;;5.72;3.90;;;19.90;42.30;;;;;;5074766;28;20180;-45
2022/07/03 03:25:54;;;;;;;5.03;4.20;;;19.90;42.20;;;;;;5074228;28;20172;-46
2022/07/03 03:28:20;;;;;;;4.00;3.60;;;19.90;42.20;;;;;;5074240;28;20200;-46
2022/07/03 03:30:47;;;;;;;5.90;4.80;;;19.90;42.60;;;;;;5074271;28;20415;-45
2022/07/03 03:33:13;;;;;;;7.32;5.00;;;19.90;42.40;;;;;;5074295;28;20172;-46
2022/07/03 03:35:39;;;;;;;4.30;3.83;;;19.90;42.30;;;;;;5073844;28;20180;-47
2022/07/03 03:38:05;;;;;;;4.97;4.50;;;20.00;42.40;;;;;;5074462;28;20187;-47
2022/07/03 03:40:32;;;;;;;6.20;4.75;;;20.00;42.40;;;;;;5074032;28;20583;-46
2022/07/03 03:42:58;;;;;;;7.18;4.75;;;20.00;42.30;;;;;;5074113;28;20198;-46
2022/07/03 03:45:24;;;;;;;3.60;3.30;;;20.00;42.10;;;;;;5074224;28;20198;-45
2022/07/03 03:47:50;;;;;;;4.57;3.87;;;20.00;42.10;;;;;;5073794;28;20641;-46
2022/07/03 03:50:16;;;;;;;4.80;4.40;;;20.10;42.00;;;;;;5074048;28;20715;-44
2022/07/03 03:52:42;;;;;;;4.50;4.00;;;20.10;42.10;;;;;;5074285;28;20473;-46
2022/07/03 03:55:11;;;;;;;4.30;3.90;;;20.10;41.80;;;;;;5073826;28;20802;-45
2022/07/03 03:57:37;;;;;;;5.65;3.90;;;20.20;41.80;;;;;;5073943;28;20177;-46
2022/07/03 04:00:07;;;;;;;5.00;3.30;;;20.20;41.70;;;;;;5073889;28;20193;-46
2022/07/03 04:02:33;;;;;;;5.20;4.43;;;20.20;41.60;;;;;;5073629;28;20402;-46
2022/07/03 04:04:59;;;;;;;5.70;3.67;;;20.30;41.90;;;;;;5073834;28;20307;-46
2022/07/03 04:07:25;;;;;;;5.27;4.77;;;20.30;41.90;;;;;;5073593;28;20415;-46
2022/07/03 04:09:50;;;;;;;5.90;4.37;;;20.40;41.90;;;;;;5073582;28;20547;-46
2022/07/03 04:12:16;;;;;;;5.63;4.50;;;20.50;42.00;;;;;;5073432;28;20169;-45
2022/07/03 04:14:42;;;;;;;4.67;3.80;;;20.50;42.10;;;;;;5073742;28;20187;-46
2022/07/03 04:17:08;;;;;;;5.50;3.57;;;20.60;41.90;;;;;;5073241;28;20199;-46
2022/07/03 04:19:34;;;;;;;4.03;3.63;;;20.60;42.00;;;;;;5073016;28;20239;-46
2022/07/03 04:22:00;;;;;;;5.23;4.00;;;20.60;41.90;;;;;;5073246;28;20234;-46
2022/07/03 04:24:25;;;;;;;6.87;3.60;;;20.70;42.00;;;;;;5073285;28;20415;-46
2022/07/03 04:26:51;;;;;;;4.83;4.20;;;20.80;42.00;;;;;;5072895;28;20177;-46
2022/07/03 04:29:17;;;;;;;5.90;4.45;;;20.80;41.90;;;;;;5072773;28;20196;-46
2022/07/03 04:31:44;;;;;;;4.50;3.77;;;20.80;42.20;;;;;;5073001;28;20262;-46
2022/07/03 04:34:10;;;;;;;5.63;4.27;;;20.90;41.90;;;;;;5072878;28;20414;-47
2022/07/03 04:36:36;;;;;;;5.40;4.13;;;20.90;42.00;;;;;;5073001;28;20168;-47
2022/07/03 04:39:02;;;;;;;4.50;3.73;;;21.00;42.00;;;;;;5072898;28;20607;-46
2022/07/03 04:41:27;;;;;;;4.20;3.70;;;21.10;42.00;;;;;;5072995;28;20191;-46
2022/07/03 04:43:53;;;;;;;4.43;3.90;;;21.10;42.00;;;;;;5072910;28;20684;-45
2022/07/03 04:46:21;;;;;;;6.40;4.80;;;21.20;41.70;;;;;;5072521;28;20195;-45
2022/07/03 04:48:46;;;;;;;5.70;4.63;;;21.30;41.60;;;;;;5072786;28;20208;-47
2022/07/03 04:51:12;;;;;;;5.63;3.67;;;21.30;41.60;;;;;;5072756;28;20410;-47
2022/07/03 04:53:38;;;;;;;4.37;3.77;;;21.40;41.40;;;;;;5072624;28;20625;-45
2022/07/03 04:56:04;;;;;;;4.13;3.73;;;21.50;42.00;;;;;;5072428;28;20251;-46
2022/07/03 04:58:30;;;;;;;4.93;4.00;;;21.60;41.10;;;;;;5072499;28;20540;-45
2022/07/03 05:00:55;;;;;;;4.40;3.80;;;21.70;40.90;;;;;;5072468;28;20430;-45
2022/07/03 05:03:21;;;;;;;4.43;4.03;;;21.80;40.70;;;;;;5072444;28;20195;-45
2022/07/03 05:05:47;;;;;;;5.20;4.70;;;21.90;40.40;;;;;;5072474;28;20211;-46
2022/07/03 05:08:13;;;;;;;4.47;3.40;;;22.00;40.20;;;;;;5072366;28;20287;-45
2022/07/03 05:10:39;;;;;;;3.23;2.93;;;22.00;40.00;;;;;;5072588;28;20196;-46
2022/07/03 05:13:04;;;;;;;4.23;3.83;;;22.00;39.90;;;;;;5072403;28;20434;-45
2022/07/03 05:15:30;;;;;;;4.50;3.70;;;22.10;39.90;;;;;;5072235;28;20238;-45
2022/07/03 05:17:56;;;;;;;6.63;3.37;;;22.20;40.00;;;;;;5072081;28;20602;-45
2022/07/03 05:20:27;;;;;;;3.90;2.80;;;22.30;40.00;;;;;;5072141;28;20208;-46
2022/07/03 05:22:58;;;;;;;3.40;2.80;;;22.40;39.50;;;;;;5072459;28;20207;-46
2022/07/03 05:25:25;;;;;;;6.43;3.07;;;22.50;39.50;;;;;;5072373;28;20411;-46
2022/07/03 05:27:52;;;;;;;4.90;3.50;;;22.60;39.60;;;;;;5071950;28;20411;-46
2022/07/03 05:30:19;;;;;;;4.30;3.50;;;22.60;39.40;;;;;;5071913;28;20443;-45
2022/07/03 05:32:45;;;;;;;4.20;3.53;;;22.70;39.10;;;;;;5072297;28;20418;-45
2022/07/03 05:35:11;;;;;;;3.70;3.03;;;22.80;39.00;;;;;;5072276;28;20407;-45
2022/07/03 05:37:37;;;;;;;6.23;3.10;;;22.90;39.30;;;;;;5072031;28;20402;-45
2022/07/03 05:40:07;;;;;;;3.83;2.60;;;23.00;39.40;;;;;;5071517;28;20426;-45
2022/07/03 05:42:33;;;;;;;4.10;3.13;;;23.20;39.10;;;;;;5072066;28;20406;-46
2022/07/03 05:45:00;;;;;;;3.40;3.10;;;23.30;39.00;;;;;;5071980;28;20434;-46
2022/07/03 05:47:26;;;;;;;3.73;3.40;;;23.40;39.00;;;;;;5071734;28;20407;-45
2022/07/03 05:49:51;;;;;;;4.53;3.30;;;23.50;38.80;;;;;;5071757;28;20969;-46
2022/07/03 05:52:17;;;;;;;3.00;2.57;;;23.60;38.80;;;;;;5072183;28;20410;-46
2022/07/03 05:54:43;;;;;;;3.57;2.90;;;23.70;38.30;;;;;;5071894;28;20177;-46
2022/07/03 05:57:09;;;;;;;4.00;3.20;;;23.80;37.50;;;;;;5071677;28;20450;-44
2022/07/03 05:59:35;;;;;;;5.17;3.20;;;23.80;37.40;;;;;;5072067;28;20231;-46
2022/07/03 06:02:00;;;;;;;3.70;3.30;;;23.90;37.60;;;;;;5072109;28;20680;-45
2022/07/03 06:04:26;;;;;;;3.83;3.30;;;23.90;37.70;;;;;;5071821;28;20414;-45
2022/07/03 06:06:54;;;;;;;4.20;3.37;;;24.00;37.70;;;;;;5071568;28;20464;-46
2022/07/03 06:09:20;;;;;;;3.70;3.10;;;24.10;37.50;;;;;;5071952;28;20482;-46
2022/07/03 06:11:47;;;;;;;4.97;3.63;;;24.20;37.60;;;;;;5071742;28;20837;-46
2022/07/03 06:14:13;;;;;;;4.30;2.90;;;24.20;37.40;;;;;;5071738;28;20410;-46
2022/07/03 06:16:39;;;;;;;4.73;3.20;;;24.30;37.60;;;;;;5071428;28;20768;-46
2022/07/03 06:19:05;;;;;;;3.20;2.90;;;24.40;36.80;;;;;;5071600;28;20461;-45
2022/07/03 06:21:32;;;;;;;5.10;3.40;;;24.40;37.30;;;;;;5071936;28;20425;-46
2022/07/03 06:23:57;;;;;;;5.20;4.27;;;24.50;37.20;;;;;;5071704;28;20468;-46
2022/07/03 06:26:23;;;;;;;5.40;3.20;;;24.50;37.00;;;;;;5071408;28;20793;-47
2022/07/03 06:28:49;;;;;;;5.13;3.10;;;24.60;36.50;;;;;;5071723;28;20200;-45
2022/07/03 06:31:15;;;;;;;4.00;3.60;;;24.60;37.30;;;;;;5071530;28;20206;-47
2022/07/03 06:33:40;;;;;;;4.20;3.00;;;24.60;37.00;;;;;;5071513;28;20193;-46
2022/07/03 06:36:06;;;;;;;4.80;4.17;;;24.70;37.40;;;;;;5071611;28;20249;-46
2022/07/03 06:38:32;;;;;;;3.33;3.03;;;24.80;37.40;;;;;;5071519;28;20278;-45
2022/07/03 06:40:58;;;;;;;3.70;2.97;;;24.90;36.80;;;;;;5071622;28;20453;-46
2022/07/03 06:43:24;;;;;;;3.43;2.70;;;25.00;37.80;;;;;;5071394;28;20407;-47
2022/07/03 06:45:49;;;;;;;3.80;2.97;;;25.10;37.50;;;;;;5071415;28;20181;-46
2022/07/03 06:48:15;;;;;;;4.23;3.10;;;25.30;37.40;;;;;;5071337;28;20691;-45
2022/07/03 06:50:41;;;;;;;4.67;3.50;;;25.40;37.40;;;;;;5072468;28;20208;-47
2022/07/03 06:53:07;;;;;;;4.07;3.00;;;25.60;37.30;;;;;;5075200;28;20226;-47
2022/07/03 06:55:33;;;;;;;5.70;4.00;;;25.70;36.80;;;;;;5074879;28;20583;-46
2022/07/03 06:57:58;;;;;;;3.90;3.33;;;25.90;36.80;;;;;;5074776;28;20176;-47
2022/07/03 07:00:24;;;;;;;3.10;2.60;;;25.90;35.40;;;;;;5074835;28;20429;-46
2022/07/03 07:02:50;;;;;;;6.73;3.33;;;26.00;36.10;;;;;;5075295;28;20298;-47
2022/07/03 07:05:16;;;;;;;3.60;2.83;;;26.00;36.10;;;;;;5074759;28;20406;-45
2022/07/03 07:07:42;;;;;;;3.80;2.47;;;26.00;35.40;;;;;;5074702;28;20172;-45
2022/07/03 07:10:08;;;;;;;3.80;3.27;;;26.10;36.20;;;;;;5074648;28;20208;-47
2022/07/03 07:12:33;;;;;;;4.17;3.00;;;26.20;36.40;;;;;;5074591;28;20217;-45
2022/07/03 07:14:59;;;;;;;4.37;3.30;;;26.30;35.80;;;;;;5074547;28;20974;-45
2022/07/03 07:17:25;;;;;;;3.07;2.50;;;26.40;35.80;;;;;;5074238;28;20221;-43
2022/07/03 07:19:51;;;;;;;3.93;2.93;;;26.60;35.70;;;;;;5074317;28;20208;-45
2022/07/03 07:22:17;;;;;;;3.43;3.13;;;26.60;34.00;;;;;;5074726;28;20176;-45
2022/07/03 07:24:42;;;;;;;4.33;2.77;;;26.60;35.30;;;;;;5074363;28;20289;-44
2022/07/03 07:27:08;;;;;;;3.60;2.63;;;26.80;35.80;;;;;;5074041;28;20177;-46
2022/07/03 07:29:34;;;;;;;5.17;2.47;;;27.00;36.00;;;;;;5074180;28;20204;-45
2022/07/03 07:31:59;;;;;;;4.60;2.60;;;27.10;35.70;;;;;;5074237;28;20200;-44
2022/07/03 07:34:25;;;;;;;2.90;2.50;;;27.20;36.00;;;;;;5074809;28;20265;-42
2022/07/03 07:36:51;;;;;;;3.97;2.43;;;27.40;36.30;;;;;;5074441;28;20260;-44
2022/07/03 07:39:17;;;;;;;4.23;2.50;;;27.50;35.90;;;;;;5074681;28;20192;-45
2022/07/03 07:41:42;;;;;;;3.07;2.37;;;27.60;35.10;;;;;;5074388;28;20688;-45
2022/07/03 07:44:08;;;;;;;3.13;2.40;;;27.70;34.40;;;;;;5074546;28;20176;-46
2022/07/03 07:46:34;;;;;;;3.63;2.90;;;27.80;34.10;;;;;;5074223;28;20207;-44
2022/07/03 07:49:00;;;;;;;3.03;2.40;;;27.90;34.70;;;;;;5074580;28;20215;-44
2022/07/03 07:51:25;;;;;;;4.80;2.90;;;28.00;34.80;;;;;;5074703;28;20414;-45
2022/07/03 07:53:52;;;;;;;3.50;2.70;;;28.10;33.60;;;;;;5074814;28;20169;-44
2022/07/03 07:56:18;;;;;;;3.50;2.83;;;28.20;33.90;;;;;;5073760;28;20215;-44
2022/07/03 07:58:44;;;;;;;2.63;2.43;;;28.20;32.90;;;;;;5073627;28;20439;-44
2022/07/03 08:06:38;;;;;;;3.23;2.23;;;28.50;32.80;;;;;;5073667;28;20414;-44
2022/07/03 08:09:03;;;;;;;3.30;2.63;;;28.50;32.20;;;;;;5073484;28;20965;-44
2022/07/03 08:11:29;;;;;;;5.73;2.90;;;28.60;32.80;;;;;;5073817;28;20255;-44
2022/07/03 08:13:55;;;;;;;3.20;2.80;;;28.80;31.60;;;;;;5073564;28;20223;-46
2022/07/03 08:16:20;;;;;;;3.33;2.93;;;28.80;31.80;;;;;;5073190;28;20617;-44
2022/07/03 08:18:46;;;;;;;3.80;2.57;;;28.90;31.60;;;;;;5073155;28;20172;-43
2022/07/03 08:21:12;;;;;;;2.67;1.70;;;28.90;31.20;;;;;;5073272;28;20271;-45
2022/07/03 08:23:38;;;;;;;2.87;2.50;;;28.90;31.40;;;;;;5073240;28;20198;-45
2022/07/03 08:26:04;;;;;;;2.70;2.27;;;29.00;32.10;;;;;;5072942;28;20172;-45
2022/07/03 08:28:30;;;;;;;2.97;2.20;;;29.10;31.10;;;;;;5073023;28;20458;-44
2022/07/03 08:30:56;;;;;;;4.87;2.70;;;29.20;32.00;;;;;;5073018;28;20425;-44
2022/07/03 08:33:22;;;;;;;3.60;2.50;;;29.30;32.90;;;;;;5072946;28;20899;-44
2022/07/03 08:35:48;;;;;;;3.70;2.33;;;29.50;32.30;;;;;;5072277;28;20173;-44
2022/07/03 08:38:14;;;;;;;2.57;1.90;;;29.60;31.00;;;;;;5073070;28;20435;-45
2022/07/03 08:40:41;;;;;;;8.37;2.67;;;29.70;30.20;;;;;;5072714;28;20279;-45
2022/07/03 08:43:07;;;;;;;2.70;2.27;;;29.70;30.60;;;;;;5073069;28;20411;-44
2022/07/03 08:45:34;;;;;;;3.37;2.33;;;29.70;31.00;;;;;;5072606;28;20422;-46
2022/07/03 08:48:02;;;;;;;2.93;2.17;;;29.60;31.10;;;;;;5072711;28;20180;-45
2022/07/03 08:50:29;;;;;;;2.80;2.27;;;29.70;31.00;;;;;;5072547;28;20859;-43
2022/07/03 08:52:55;;;;;;;4.20;2.93;;;29.60;30.30;;;;;;5072641;28;20783;-44
2022/07/03 08:55:21;;;;;;;4.73;2.60;;;29.50;29.30;;;;;;5072515;28;20402;-44
2022/07/03 08:57:48;;;;;;;2.80;2.10;;;29.30;29.60;;;;;;5072222;28;20179;-45
2022/07/03 09:00:19;;;;;;;6.07;3.13;;;29.20;30.50;;;;;;5072435;28;20480;-45
2022/07/03 09:02:46;;;;;;;2.50;2.20;;;29.30;30.50;;;;;;5072470;28;20435;-44
2022/07/03 09:05:14;;;;;;;2.43;2.00;;;29.30;31.20;;;;;;5072450;28;20415;-45
2022/07/03 09:07:43;;;;;;;2.77;2.27;;;29.50;31.40;;;;;;5072450;28;20471;-46
2022/07/03 09:10:12;;;;;;;4.27;2.37;;;29.50;30.50;;;;;;5072262;28;20473;-45
2022/07/03 09:12:38;;;;;;;6.40;3.40;;;29.50;30.40;;;;;;5072307;28;20403;-45
2022/07/03 09:15:06;;;;;;;3.80;2.20;;;29.40;30.00;;;;;;5071438;28;20403;-46
2022/07/03 09:17:33;;;;;;;3.83;2.53;;;29.40;30.30;;;;;;5071962;28;20410;-46
2022/07/03 09:20:00;;;;;;;3.47;2.83;;;29.40;31.00;;;;;;5072170;28;20460;-45
2022/07/03 09:22:32;;;;;;;2.90;2.10;;;29.30;31.10;;;;;;5072468;28;20406;-46
2022/07/03 09:25:08;;;;;;;4.17;2.57;;;29.30;31.40;;;;;;5072244;28;20443;-48
2022/07/03 09:27:35;;;;;;;3.00;2.27;;;29.30;31.40;;;;;;5071952;28;20496;-46
2022/07/03 09:30:03;;;;;;;3.80;2.30;;;29.30;31.50;;;;;;5071869;28;20490;-45
2022/07/03 09:32:38;;;;;;;3.10;2.23;;;29.30;32.00;;;;;;5072147;28;20443;-47
2022/07/03 09:35:24;;;;;;;4.40;2.80;;;29.30;32.00;;;;;;5072083;28;20816;-47
2022/07/03 09:37:59;;;;;;;2.97;2.10;;;29.50;32.20;;;;;;5071934;28;20395;-48
2022/07/03 09:40:51;;;;;;;3.00;2.33;;;29.60;31.50;;;;;;5071925;28;20426;-46
2022/07/03 09:43:29;;;;;;;3.10;2.30;;;29.90;31.20;;;;;;5072153;28;20411;-46
2022/07/03 09:45:57;;;;;;;4.20;2.43;;;30.00;31.40;;;;;;5071731;28;20751;-46
2022/07/03 09:48:26;;;;;;;3.00;2.40;;;30.20;31.70;;;;;;5071910;28;20527;-47
2022/07/03 09:51:26;;;;;;;3.20;2.03;;;30.50;31.20;;;;;;5071898;28;20423;-48
2022/07/03 09:53:59;;;;;;;2.83;2.20;;;30.60;30.60;;;;;;5072042;28;20395;-47
2022/07/03 09:56:36;;;;;;;3.33;2.40;;;30.70;30.20;;;;;;5071624;28;20399;-46
2022/07/03 09:59:13;;;;;;;2.70;2.43;;;30.80;28.70;;;;;;5071823;28;20877;-48
2022/07/03 10:01:46;;;;;;;3.00;1.93;;;30.80;28.60;;;;;;5071745;28;20402;-46
2022/07/03 10:04:23;;;;;;;3.40;3.10;;;30.60;28.80;;;;;;5071871;28;20403;-48
2022/07/03 10:07:00;;;;;;;4.00;2.77;;;30.50;29.40;;;;;;5071609;28;20605;-46
2022/07/03 10:09:30;;;;;;;3.10;2.50;;;30.40;29.80;;;;;;5071568;28;20458;-47
2022/07/03 10:11:58;;;;;;;4.80;1.77;;;30.50;29.80;;;;;;5071658;28;20922;-46
2022/07/03 10:14:26;;;;;;;2.50;2.00;;;30.70;29.00;;;;;;5071673;28;20906;-47
2022/07/03 10:16:52;;;;;;;3.30;2.20;;;30.80;29.00;;;;;;5071536;28;20423;-46
2022/07/03 10:19:22;;;;;;;2.77;2.00;;;30.90;28.90;;;;;;5071486;28;20975;-47
2022/07/03 10:21:54;;;;;;;2.10;1.73;;;31.20;28.40;;;;;;5071504;28;20877;-46
2022/07/03 10:24:28;;;;;;;5.77;2.27;;;31.30;27.70;;;;;;5071852;28;20414;-47
2022/07/03 10:26:56;;;;;;;2.97;2.23;;;31.40;27.60;;;;;;5074420;28;20409;-46
2022/07/03 10:29:24;;;;;;;2.67;1.80;;;31.50;27.60;;;;;;5075261;28;20515;-46
2022/07/03 10:31:50;;;;;;;2.40;2.00;;;31.60;27.60;;;;;;5075343;28;20944;-46
2022/07/03 10:34:22;;;;;;;3.40;2.47;;;31.70;27.40;;;;;;5075602;28;20805;-47
2022/07/03 10:36:58;;;;;;;3.23;2.33;;;31.80;25.60;;;;;;5075149;28;20403;-46
2022/07/03 10:39:45;;;;;;;3.20;2.83;;;31.80;25.60;;;;;;5075367;28;20429;-48
2022/07/03 10:45:09;;;;;;;2.40;1.70;;;31.80;27.20;;;;;;5075517;28;20893;-46
2022/07/03 10:47:44;;;;;;;2.60;2.00;;;32.00;27.80;;;;;;5075125;28;20566;-45
2022/07/03 10:50:13;;;;;;;3.03;2.37;;;32.10;27.90;;;;;;5074976;28;20540;-45
2022/07/03 10:52:40;;;;;;;3.73;2.47;;;32.30;27.50;;;;;;5075246;28;20480;-45
2022/07/03 10:55:07;;;;;;;2.90;2.00;;;32.40;27.60;;;;;;5074902;28;20457;-44
2022/07/03 10:57:37;;;;;;;4.10;2.40;;;32.50;27.20;;;;;;5074607;28;20410;-46
2022/07/03 11:00:13;;;;;;;2.90;2.10;;;32.60;26.60;;;;;;5075150;28;20510;-45
2022/07/03 11:02:40;;;;;;;8.50;2.20;;;32.70;25.20;;;;;;5074823;28;20418;-45
2022/07/03 11:05:12;;;;;;;3.70;1.70;;;32.70;25.60;;;;;;5074762;28;20418;-46
2022/07/03 11:08:04;;;;;;;2.47;1.97;;;32.60;25.80;;;;;;5074559;28;20914;-46
2022/07/03 11:10:32;;;;;;;4.80;2.10;;;32.80;24.80;;;;;;5074784;28;20439;-45
2022/07/03 11:13:05;;;;;;;3.30;1.97;;;32.90;24.20;;;;;;5074935;28;20409;-43
2022/07/03 11:15:47;;;;;;;2.50;1.90;;;33.00;25.00;;;;;;5074517;28;20402;-45
2022/07/03 11:18:16;;;;;;;2.77;2.03;;;33.10;25.70;;;;;;5074508;28;20832;-45
2022/07/03 11:20:41;;;;;;;2.97;2.00;;;33.20;25.00;;;;;;5074393;28;20451;-44
2022/07/03 11:23:13;;;;;;;2.43;1.80;;;33.20;24.00;;;;;;5074436;28;20453;-46
2022/07/03 11:25:50;;;;;;;3.10;2.20;;;33.20;24.20;;;;;;5074293;28;20173;-45
2022/07/03 11:28:31;;;;;;;2.73;2.00;;;33.20;24.70;;;;;;5074486;28;20457;-44
2022/07/03 11:31:15;;;;;;;2.63;2.00;;;33.10;23.70;;;;;;5074204;28;20780;-45
2022/07/03 11:33:56;;;;;;;2.90;2.13;;;33.00;23.90;;;;;;5074591;28;20383;-46
2022/07/03 11:36:22;;;;;;;2.33;1.63;;;33.00;23.30;;;;;;5073922;28;20398;-44
2022/07/03 11:39:02;;;;;;;2.90;1.77;;;32.80;22.50;;;;;;5073118;28;20418;-44
2022/07/03 11:41:30;;;;;;;2.00;1.63;;;32.70;23.00;;;;;;5074401;28;20402;-45
2022/07/03 11:44:04;;;;;;;2.30;1.80;;;32.70;23.30;;;;;;5074114;28;20446;-45
2022/07/03 11:46:34;;;;;;;2.60;2.30;;;32.70;24.00;;;;;;5074134;28;20391;-45
2022/07/03 11:49:19;;;;;;;2.87;2.00;;;32.80;25.70;;;;;;5074194;28;21004;-45
2022/07/03 11:52:02;;;;;;;2.37;1.83;;;33.00;26.30;;;;;;5073885;28;20815;-44
2022/07/03 11:54:48;;;;;;;2.47;1.77;;;33.10;25.60;;;;;;5074047;28;20850;-43
2022/07/03 11:57:14;;;;;;;2.10;1.70;;;33.20;24.30;;;;;;5073995;28;20383;-45
2022/07/03 11:59:40;;;;;;;2.93;1.90;;;33.30;23.70;;;;;;5073958;28;20438;-45
2022/07/03 12:02:07;;;;;;;3.23;1.90;;;33.30;24.00;;;;;;5073610;28;20762;-45
2022/07/03 12:04:33;;;;;;;2.27;1.90;;;33.20;23.10;;;;;;5073606;28;20922;-44
2022/07/03 12:07:00;;;;;;;5.20;2.33;;;33.30;23.00;;;;;;5073347;28;20402;-44
2022/07/03 12:09:33;;;;;;;2.90;2.13;;;33.30;22.70;;;;;;5073595;28;20208;-44
2022/07/03 12:12:07;;;;;;;2.50;2.07;;;33.20;22.30;;;;;;5073426;28;20763;-44
2022/07/03 12:14:42;;;;;;;2.73;1.90;;;33.10;23.70;;;;;;5073474;28;20917;-45
2022/07/03 12:17:19;;;;;;;2.17;1.40;;;33.10;23.90;;;;;;5073303;28;20415;-46
2022/07/03 12:19:54;;;;;;;2.20;1.70;;;33.10;23.70;;;;;;5073265;28;20968;-45
2022/07/03 12:22:27;;;;;;;2.50;2.03;;;33.00;23.60;;;;;;5073420;28;20935;-44
2022/07/03 12:25:12;;;;;;;2.57;1.60;;;33.10;24.10;;;;;;5073138;28;20410;-45
2022/07/03 12:27:45;;;;;;;2.43;1.90;;;33.20;23.20;;;;;;5073036;28;20468;-44
2022/07/03 12:30:17;;;;;;;2.83;2.00;;;33.30;22.70;;;;;;5073010;28;20459;-46
2022/07/03 12:32:46;;;;;;;2.90;1.90;;;33.20;23.10;;;;;;5073376;28;20387;-45
2022/07/03 12:35:12;;;;;;;2.60;2.00;;;33.10;24.00;;;;;;5073035;28;20403;-44
2022/07/03 12:37:48;;;;;;;2.50;2.03;;;33.00;24.40;;;;;;5072789;28;21024;-45
2022/07/03 12:40:15;;;;;;;2.53;2.00;;;32.80;24.20;;;;;;5072855;28;20192;-45
2022/07/03 12:42:46;;;;;;;3.50;1.77;;;32.80;25.10;;;;;;5073058;28;20445;-46
2022/07/03 12:45:14;;;;;;;2.27;1.60;;;32.90;25.70;;;;;;5073118;28;20417;-44
2022/07/03 12:47:40;;;;;;;2.40;1.93;;;33.10;26.10;;;;;;5072655;28;20411;-45
2022/07/03 12:50:08;;;;;;;2.27;1.60;;;33.20;25.90;;;;;;5072333;28;20538;-44
2022/07/03 12:52:49;;;;;;;2.60;1.80;;;33.30;25.60;;;;;;5072616;28;20490;-47
2022/07/03 12:55:28;;;;;;;5.83;1.47;;;33.50;23.90;;;;;;5072994;28;20820;-47
2022/07/03 13:01:34;;;;;;;2.30;1.63;;;34.00;24.40;;;;;;5050502;28;20450;-44
2022/07/03 13:04:00;;;;;;;2.27;1.80;;;34.20;24.20;;;;;;5050331;28;20415;-46
2022/07/03 13:06:26;;;;;;;3.10;2.23;;;34.40;24.30;;;;;;5049925;28;20399;-46
2022/07/03 13:08:55;;;;;;;2.60;1.47;;;34.60;22.50;;;;;;5049952;28;20455;-45
2022/07/03 13:11:41;;;;;;;2.03;1.53;;;34.70;22.50;;;;;;5050233;28;20170;-45
2022/07/03 13:14:18;;;;;;;6.13;1.90;;;34.70;20.90;;;;;;5050083;28;20408;-45